KOPN

Thomaston-Upson County Airport

Thomaston, Georgia, USA
METAR KOPN 121855Z AUTO 24007KT 10SM CLR 14/M10 A3021 RMK AO2
Observed Flight Rules
Dec-12 @ 18:55 UTC (17 minutes ago) Visual Flight Rules
Wind Visibility Clouds
240° at 7 knots 10 miles
  • Clear skies
Temperatures Readings
Current 14°C / 57°F
Dewpoint -10°C / 14°F
Humidity 18%
Altimeter 30.21" Hg
Pressure 1023 hPa
Elevation 243
METAR KOPN 121855Z AUTO 24007KT 10SM CLR 14/M10 A3021 RMK AO2
Observed Flight Rules
Dec-12 @ 18:55 UTC
(17 minutes ago)
VFR
Wind Visibility
240° at 7 knots 10 miles
Clouds
  • Clear skies
Temperature Dewpoint
14°C / 57°F -10°C / 14°F
Humidity Altimeter Pressure
18% 30.21" Hg 1023 hPa